Time;durP1;ratioP1;P1;durP2;ratioP2;P2;SDS_P1;SDS_P2;PMS_P1;PMS_P2;Temp;Humidity;BMP_temperature;BMP_pressure;BME280_temperature;BME280_humidity;BME280_pressure;Samples;Min_cycle;Max_cycle;Signal;HPM_P1;HPM_P2
2022/08/17 00:00:46;;;;;;;4.50;4.20;;;17.60;99.90;;;;;;493912;241;28798;-68
2022/08/17 00:02:46;;;;;;;5.10;4.70;;;17.60;99.90;;;;;;493994;241;28831;-69
2022/08/17 00:04:48;;;;;;;4.53;4.23;;;17.60;99.90;;;;;;494028;241;28840;-69
2022/08/17 00:06:49;;;;;;;4.50;4.20;;;17.60;99.90;;;;;;493858;241;28786;-68
2022/08/17 00:08:50;;;;;;;4.43;4.13;;;17.60;99.90;;;;;;493834;241;28857;-69
2022/08/17 00:10:51;;;;;;;4.87;4.57;;;17.60;99.90;;;;;;493746;241;29250;-69
2022/08/17 00:12:52;;;;;;;4.43;4.13;;;17.50;99.90;;;;;;493931;241;29266;-68
2022/08/17 00:14:53;;;;;;;4.60;4.30;;;17.50;99.90;;;;;;493998;241;29433;-70
2022/08/17 00:16:55;;;;;;;4.60;4.30;;;17.60;99.90;;;;;;493805;241;29248;-69
2022/08/17 00:18:56;;;;;;;4.53;4.23;;;17.60;99.90;;;;;;493877;241;28880;-68
2022/08/17 00:20:57;;;;;;;5.20;4.70;;;17.60;99.90;;;;;;493994;237;28845;-73
2022/08/17 00:22:58;;;;;;;4.33;4.03;;;17.50;99.90;;;;;;493966;241;28888;-69
2022/08/17 00:25:00;;;;;;;4.87;4.47;;;17.40;99.90;;;;;;493940;241;28936;-70
2022/08/17 00:27:02;;;;;;;5.17;4.70;;;17.40;99.90;;;;;;493924;241;28885;-70
2022/08/17 00:29:02;;;;;;;4.87;4.43;;;17.40;99.90;;;;;;493962;241;28833;-69
2022/08/17 00:31:03;;;;;;;4.57;4.27;;;17.40;99.90;;;;;;494030;241;29198;-73
2022/08/17 00:33:05;;;;;;;4.60;4.30;;;17.50;99.90;;;;;;494026;239;28813;-69
2022/08/17 00:35:06;;;;;;;5.00;4.60;;;17.50;99.90;;;;;;494018;241;28832;-70
2022/08/17 00:37:07;;;;;;;4.20;3.90;;;17.40;99.90;;;;;;493898;241;29246;-69
2022/08/17 00:39:08;;;;;;;4.60;4.30;;;17.40;99.90;;;;;;494000;241;29302;-69
2022/08/17 00:41:10;;;;;;;4.87;4.57;;;17.40;99.90;;;;;;494035;241;29475;-72
2022/08/17 00:43:11;;;;;;;4.60;4.20;;;17.30;99.90;;;;;;493975;241;28825;-68
2022/08/17 00:45:12;;;;;;;5.43;5.03;;;17.30;99.90;;;;;;493999;241;28848;-70
2022/08/17 00:47:13;;;;;;;5.43;5.03;;;17.30;99.90;;;;;;493952;241;28840;-69
2022/08/17 00:49:15;;;;;;;5.30;4.93;;;17.40;99.90;;;;;;494011;241;28820;-69
2022/08/17 00:51:16;;;;;;;5.10;4.70;;;17.30;99.90;;;;;;494047;241;28935;-71
2022/08/17 00:53:19;;;;;;;4.80;4.50;;;17.20;99.90;;;;;;494030;241;28861;-69
2022/08/17 00:55:18;;;;;;;4.90;4.60;;;17.20;99.90;;;;;;493923;241;28884;-70
2022/08/17 00:57:20;;;;;;;5.00;4.60;;;17.20;99.90;;;;;;493906;241;28816;-69
2022/08/17 00:59:21;;;;;;;4.77;4.40;;;17.20;99.90;;;;;;493994;241;28854;-69
2022/08/17 01:01:22;;;;;;;4.80;4.40;;;17.20;99.90;;;;;;494049;241;29358;-73
2022/08/17 01:03:26;;;;;;;4.13;3.83;;;17.30;99.90;;;;;;493997;241;29396;-69
2022/08/17 01:05:27;;;;;;;4.50;4.20;;;17.30;99.90;;;;;;494036;241;29308;-69
2022/08/17 01:07:29;;;;;;;4.63;4.30;;;17.30;99.90;;;;;;493947;241;28838;-70
2022/08/17 01:09:30;;;;;;;4.67;4.37;;;17.30;99.90;;;;;;494012;241;28814;-69
2022/08/17 01:11:32;;;;;;;4.50;4.20;;;17.30;99.90;;;;;;494009;241;28829;-70
2022/08/17 01:13:32;;;;;;;4.30;4.00;;;17.30;99.90;;;;;;494025;241;28826;-69
2022/08/17 01:15:34;;;;;;;4.80;4.50;;;17.40;99.90;;;;;;494053;241;28840;-70
2022/08/17 01:17:35;;;;;;;4.30;4.00;;;17.40;99.90;;;;;;493954;241;28864;-71
2022/08/17 01:19:36;;;;;;;4.10;3.80;;;17.40;99.90;;;;;;494021;241;28797;-69
2022/08/17 01:21:37;;;;;;;4.90;4.50;;;17.40;99.90;;;;;;493999;241;29233;-69
2022/08/17 01:23:41;;;;;;;4.47;4.17;;;17.40;99.90;;;;;;494038;241;29535;-69
2022/08/17 01:25:40;;;;;;;5.00;4.53;;;17.40;99.90;;;;;;493943;241;29239;-69
2022/08/17 01:27:41;;;;;;;4.40;4.10;;;17.50;99.90;;;;;;493990;241;29338;-72
2022/08/17 01:29:42;;;;;;;4.97;4.60;;;17.50;99.90;;;;;;494057;241;29273;-69
2022/08/17 01:31:44;;;;;;;4.53;4.23;;;17.50;99.90;;;;;;494063;241;28924;-70
2022/08/17 01:33:45;;;;;;;4.80;4.40;;;17.40;99.90;;;;;;494019;241;28798;-69
2022/08/17 01:35:46;;;;;;;4.60;4.30;;;17.40;99.90;;;;;;493975;241;28965;-69
2022/08/17 01:37:48;;;;;;;5.13;4.73;;;17.40;99.90;;;;;;493986;241;28882;-73
2022/08/17 01:39:49;;;;;;;4.67;4.37;;;17.40;99.90;;;;;;494059;241;28826;-68
2022/08/17 01:41:50;;;;;;;6.17;4.33;;;17.50;99.90;;;;;;494011;241;28848;-69
2022/08/17 01:43:51;;;;;;;4.80;4.43;;;17.50;99.90;;;;;;494015;241;28931;-68
2022/08/17 01:45:53;;;;;;;4.87;4.47;;;17.50;99.90;;;;;;494074;241;28929;-69
2022/08/17 01:47:54;;;;;;;4.60;4.30;;;17.50;99.90;;;;;;493987;241;28877;-69
2022/08/17 01:49:55;;;;;;;4.73;4.33;;;17.50;99.90;;;;;;494046;241;28800;-68
2022/08/17 01:51:56;;;;;;;5.03;4.63;;;17.50;99.90;;;;;;494022;241;28852;-70
2022/08/17 01:53:58;;;;;;;4.70;4.40;;;17.50;99.90;;;;;;494017;241;29771;-69
2022/08/17 01:55:59;;;;;;;5.00;4.60;;;17.40;99.90;;;;;;493983;241;29255;-77
2022/08/17 01:58:00;;;;;;;4.50;4.10;;;17.40;99.90;;;;;;493933;241;29335;-70
2022/08/17 02:00:01;;;;;;;4.30;4.00;;;17.40;99.90;;;;;;494037;241;29280;-69
2022/08/17 02:02:03;;;;;;;4.77;4.47;;;17.30;99.90;;;;;;494012;241;28845;-70
2022/08/17 02:04:04;;;;;;;4.70;4.40;;;17.30;99.90;;;;;;494030;241;28951;-69
2022/08/17 02:06:05;;;;;;;8.00;5.00;;;17.30;99.90;;;;;;494010;241;28903;-69
2022/08/17 02:08:06;;;;;;;4.67;4.23;;;17.40;99.90;;;;;;494022;241;28829;-70
2022/08/17 02:10:08;;;;;;;4.80;4.43;;;17.30;99.90;;;;;;494049;241;28834;-68
2022/08/17 02:12:09;;;;;;;4.80;4.40;;;17.30;99.90;;;;;;494002;241;28833;-68
2022/08/17 02:14:10;;;;;;;4.57;4.27;;;17.20;99.90;;;;;;494019;241;29219;-69
2022/08/17 02:16:11;;;;;;;4.80;4.50;;;17.20;99.90;;;;;;493990;241;28893;-69
2022/08/17 02:18:13;;;;;;;4.43;4.13;;;17.20;99.90;;;;;;494021;241;28931;-70
2022/08/17 02:20:14;;;;;;;4.73;4.33;;;17.20;99.90;;;;;;494033;241;29292;-69
2022/08/17 02:22:17;;;;;;;4.47;4.17;;;17.20;99.90;;;;;;494025;241;29375;-69
2022/08/17 02:24:16;;;;;;;5.00;4.60;;;17.30;99.90;;;;;;493913;241;29340;-69
2022/08/17 02:26:18;;;;;;;4.20;3.90;;;17.30;99.90;;;;;;493925;241;28892;-69
2022/08/17 02:28:19;;;;;;;4.47;4.17;;;17.40;99.90;;;;;;494045;241;28922;-70
2022/08/17 02:30:20;;;;;;;4.70;4.40;;;17.40;99.90;;;;;;494020;241;28809;-69
2022/08/17 02:32:21;;;;;;;4.17;3.87;;;17.40;99.90;;;;;;494034;241;28832;-70
2022/08/17 02:34:23;;;;;;;5.00;4.60;;;17.40;99.90;;;;;;494036;241;28960;-69
2022/08/17 02:36:24;;;;;;;5.00;4.60;;;17.30;99.90;;;;;;493871;241;28872;-68
2022/08/17 02:38:25;;;;;;;5.10;4.70;;;17.30;99.90;;;;;;494044;241;28880;-70
2022/08/17 02:40:26;;;;;;;4.50;4.20;;;17.20;99.90;;;;;;494012;241;28806;-69
2022/08/17 02:42:28;;;;;;;4.63;4.33;;;17.10;99.90;;;;;;494012;241;28866;-70
2022/08/17 02:44:29;;;;;;;5.33;4.83;;;17.10;99.90;;;;;;493876;238;29348;-73
2022/08/17 02:46:31;;;;;;;5.00;4.60;;;17.10;99.90;;;;;;493980;241;29409;-69
2022/08/17 02:48:31;;;;;;;5.17;4.80;;;17.10;99.90;;;;;;494050;241;29373;-70
2022/08/17 02:50:33;;;;;;;5.20;4.80;;;17.10;99.90;;;;;;494049;241;29240;-69
2022/08/17 02:52:34;;;;;;;4.83;4.47;;;17.20;99.90;;;;;;494033;241;28940;-70
2022/08/17 02:54:35;;;;;;;4.77;4.37;;;17.20;99.90;;;;;;494075;241;28970;-69
2022/08/17 02:56:36;;;;;;;4.93;4.40;;;17.20;99.90;;;;;;493961;241;28802;-69
2022/08/17 02:58:38;;;;;;;4.93;4.53;;;17.30;99.90;;;;;;494052;241;28832;-70
2022/08/17 03:00:39;;;;;;;5.07;4.67;;;17.20;99.90;;;;;;494044;241;28806;-68
2022/08/17 03:02:40;;;;;;;5.07;4.63;;;17.20;99.90;;;;;;494037;241;28848;-70
2022/08/17 03:04:41;;;;;;;4.90;4.60;;;17.10;99.90;;;;;;494068;241;29056;-72
2022/08/17 03:06:43;;;;;;;5.60;4.97;;;17.00;99.90;;;;;;493855;241;28805;-69
2022/08/17 03:08:44;;;;;;;5.73;4.87;;;16.90;99.90;;;;;;494046;241;29248;-70
2022/08/17 03:10:45;;;;;;;4.70;4.40;;;17.00;99.90;;;;;;494024;241;29345;-69
2022/08/17 03:12:46;;;;;;;5.77;5.37;;;17.10;99.90;;;;;;494004;241;29335;-67
2022/08/17 03:14:48;;;;;;;5.37;4.97;;;17.20;99.90;;;;;;494076;241;29594;-72
2022/08/17 03:16:49;;;;;;;5.67;5.17;;;17.20;99.90;;;;;;494016;241;28804;-69
2022/08/17 03:18:50;;;;;;;5.93;5.40;;;17.20;99.90;;;;;;494016;241;28845;-69
2022/08/17 03:20:51;;;;;;;5.40;5.00;;;17.30;99.90;;;;;;494030;241;28893;-69
2022/08/17 03:22:53;;;;;;;6.40;5.80;;;17.40;99.90;;;;;;494040;241;28828;-69
2022/08/17 03:24:54;;;;;;;4.90;4.60;;;17.50;99.90;;;;;;494024;241;29211;-69
2022/08/17 03:26:55;;;;;;;5.77;5.27;;;17.50;99.90;;;;;;493971;241;28794;-68
2022/08/17 03:28:56;;;;;;;5.90;5.40;;;17.50;99.90;;;;;;494026;241;28844;-71
2022/08/17 03:30:58;;;;;;;5.93;5.43;;;17.50;99.90;;;;;;494041;241;28817;-69
2022/08/17 03:32:59;;;;;;;6.47;5.90;;;17.50;99.90;;;;;;494019;241;28838;-69
2022/08/17 03:35:00;;;;;;;6.73;6.13;;;17.50;99.90;;;;;;494020;237;29374;-72
2022/08/17 03:37:01;;;;;;;6.83;6.20;;;17.50;99.90;;;;;;493830;241;29302;-69
2022/08/17 03:39:03;;;;;;;6.03;5.53;;;17.50;99.90;;;;;;494041;241;29329;-69
2022/08/17 03:41:04;;;;;;;5.90;5.40;;;17.60;99.90;;;;;;494035;241;28835;-69
2022/08/17 03:43:05;;;;;;;6.37;5.77;;;17.60;99.90;;;;;;494023;241;28829;-69
2022/08/17 03:45:06;;;;;;;5.87;5.43;;;17.70;99.90;;;;;;494024;241;28867;-73
2022/08/17 03:56:41;;;;;;;5.90;5.40;;;17.90;99.90;;;;;;493950;241;29208;-69
2022/08/17 03:58:42;;;;;;;6.00;5.50;;;17.90;99.90;;;;;;493972;241;28826;-68
2022/08/17 04:00:44;;;;;;;6.73;6.13;;;18.00;99.90;;;;;;494018;241;28850;-69
2022/08/17 04:02:45;;;;;;;6.50;5.90;;;18.00;99.90;;;;;;494004;241;28946;-73
2022/08/17 04:04:49;;;;;;;6.17;5.67;;;18.00;99.90;;;;;;494024;241;28905;-70
2022/08/17 04:06:47;;;;;;;5.90;5.40;;;18.00;99.90;;;;;;493771;241;28833;-71
2022/08/17 04:08:49;;;;;;;4.90;4.50;;;18.00;99.90;;;;;;494015;241;28791;-69
2022/08/17 04:10:50;;;;;;;4.70;4.40;;;18.10;99.90;;;;;;494028;241;28841;-69
2022/08/17 04:12:53;;;;;;;5.13;4.73;;;18.10;99.90;;;;;;494050;241;28932;-72
2022/08/17 04:14:52;;;;;;;5.47;5.07;;;18.10;99.90;;;;;;493927;241;28870;-69
2022/08/17 04:16:54;;;;;;;4.87;4.47;;;18.20;99.90;;;;;;493980;241;29325;-70
2022/08/17 04:18:55;;;;;;;5.20;4.80;;;18.20;99.90;;;;;;494021;241;29335;-69
2022/08/17 04:20:56;;;;;;;5.10;4.70;;;18.20;99.90;;;;;;494011;241;29410;-69
2022/08/17 04:22:57;;;;;;;4.53;4.23;;;18.20;99.90;;;;;;494037;241;29458;-73
2022/08/17 04:24:59;;;;;;;5.00;4.63;;;18.20;99.90;;;;;;494039;241;28808;-69
2022/08/17 04:27:00;;;;;;;4.50;4.20;;;18.30;99.90;;;;;;494016;241;28837;-70
2022/08/17 04:29:01;;;;;;;4.37;4.07;;;18.30;99.90;;;;;;494066;241;28883;-69
2022/08/17 04:31:03;;;;;;;4.50;4.20;;;18.30;99.90;;;;;;494056;241;28856;-70
2022/08/17 04:33:04;;;;;;;5.07;4.67;;;18.30;99.90;;;;;;494089;241;28856;-70
2022/08/17 04:35:05;;;;;;;4.50;4.20;;;18.30;99.90;;;;;;494070;241;28816;-69
2022/08/17 04:37:07;;;;;;;4.70;4.23;;;18.30;99.90;;;;;;493844;241;28925;-70
2022/08/17 04:39:07;;;;;;;5.00;4.60;;;18.30;99.90;;;;;;494002;239;29244;-69
2022/08/17 04:43:29;;;;;;;6.40;5.90;;;17.90;99.90;;;;;;494024;241;28853;-70
2022/08/17 04:45:30;;;;;;;6.03;5.53;;;17.90;99.90;;;;;;493904;241;28878;-69
2022/08/17 04:47:31;;;;;;;6.10;5.60;;;18.00;99.90;;;;;;493992;241;28802;-71
2022/08/17 04:49:33;;;;;;;5.87;5.37;;;18.10;99.90;;;;;;494042;241;28873;-73
2022/08/17 04:51:34;;;;;;;5.57;5.13;;;18.10;99.90;;;;;;493983;241;28826;-70
2022/08/17 04:53:35;;;;;;;6.17;5.17;;;18.10;99.90;;;;;;494004;241;28848;-70
2022/08/17 04:55:36;;;;;;;5.60;5.20;;;18.10;99.90;;;;;;494028;241;28928;-69
2022/08/17 04:57:37;;;;;;;5.13;4.73;;;18.10;99.90;;;;;;493975;241;28874;-70
2022/08/17 04:59:39;;;;;;;5.60;5.20;;;18.10;99.90;;;;;;494050;241;28863;-73
2022/08/17 05:01:40;;;;;;;5.23;4.83;;;18.20;99.90;;;;;;494039;241;29238;-70
2022/08/17 05:03:41;;;;;;;5.50;5.10;;;18.20;99.90;;;;;;494037;241;29312;-69
2022/08/17 05:05:48;;;;;;;5.03;4.70;;;18.20;99.90;;;;;;494004;241;29354;-69
2022/08/17 05:07:44;;;;;;;5.63;5.23;;;18.20;99.90;;;;;;493458;241;29371;-69
2022/08/17 05:09:45;;;;;;;4.70;4.40;;;18.20;99.90;;;;;;494028;241;28836;-73
2022/08/17 05:11:46;;;;;;;4.73;4.43;;;18.20;99.90;;;;;;494011;239;28880;-69
2022/08/17 05:13:48;;;;;;;5.27;4.90;;;18.10;99.90;;;;;;494029;241;28830;-69
2022/08/17 05:15:49;;;;;;;5.27;4.87;;;18.20;99.90;;;;;;493963;241;28852;-69
2022/08/17 05:17:50;;;;;;;5.50;5.10;;;18.20;99.90;;;;;;493988;241;28897;-70
2022/08/17 05:19:51;;;;;;;5.60;5.20;;;18.30;99.90;;;;;;494041;241;28836;-72
2022/08/17 05:21:52;;;;;;;5.43;5.03;;;18.20;99.90;;;;;;493980;241;28816;-69
2022/08/17 05:23:54;;;;;;;5.50;5.00;;;18.20;99.90;;;;;;494028;241;28830;-70
2022/08/17 05:25:55;;;;;;;6.53;5.57;;;18.10;99.90;;;;;;494016;241;30240;-69
2022/08/17 05:27:56;;;;;;;5.70;5.20;;;18.20;99.90;;;;;;493978;241;29263;-70
2022/08/17 05:29:57;;;;;;;5.40;5.10;;;18.30;99.90;;;;;;494015;241;29368;-72
2022/08/17 05:31:59;;;;;;;5.50;5.07;;;18.40;99.90;;;;;;494010;238;29275;-69
2022/08/17 05:34:00;;;;;;;5.43;5.03;;;18.50;99.90;;;;;;494001;241;28852;-69
2022/08/17 05:36:01;;;;;;;5.37;5.03;;;18.60;99.90;;;;;;493856;241;28878;-75
2022/08/17 05:38:02;;;;;;;5.47;4.97;;;18.70;99.90;;;;;;493974;241;28880;-70
2022/08/17 05:40:04;;;;;;;5.20;4.80;;;18.70;99.90;;;;;;494006;241;28873;-72
2022/08/17 05:42:05;;;;;;;5.70;5.30;;;18.80;99.90;;;;;;493985;241;28919;-70
2022/08/17 05:44:06;;;;;;;5.20;4.80;;;18.80;99.90;;;;;;493983;241;28861;-69
2022/08/17 05:46:07;;;;;;;5.77;5.37;;;18.80;99.90;;;;;;493946;241;28864;-74
2022/08/17 05:48:09;;;;;;;5.23;4.90;;;18.80;99.90;;;;;;494028;241;28909;-70
2022/08/17 05:50:10;;;;;;;5.27;4.87;;;18.80;99.90;;;;;;494043;241;28831;-71
2022/08/17 05:52:11;;;;;;;5.10;4.70;;;18.80;99.90;;;;;;494002;241;29257;-69
2022/08/17 05:54:12;;;;;;;4.90;4.50;;;18.80;99.90;;;;;;494044;241;29360;-70
2022/08/17 05:56:14;;;;;;;5.10;4.73;;;18.80;99.90;;;;;;493995;241;29465;-73
2022/08/17 05:58:15;;;;;;;5.50;5.03;;;18.70;99.90;;;;;;494052;241;28904;-70
2022/08/17 06:00:16;;;;;;;5.80;5.30;;;18.60;99.90;;;;;;494056;241;28841;-71
2022/08/17 06:02:17;;;;;;;5.00;4.60;;;18.50;99.90;;;;;;494055;241;28902;-70
2022/08/17 06:04:19;;;;;;;5.77;5.37;;;18.50;99.90;;;;;;494023;241;28836;-69
2022/08/17 06:06:20;;;;;;;5.27;4.87;;;18.50;99.90;;;;;;493953;241;28875;-74
2022/08/17 06:08:21;;;;;;;5.17;4.87;;;18.50;99.90;;;;;;494031;241;28816;-70
2022/08/17 06:10:22;;;;;;;5.37;4.90;;;18.60;99.90;;;;;;494051;241;28844;-70
2022/08/17 06:12:24;;;;;;;5.80;5.30;;;18.60;99.90;;;;;;494053;241;28820;-69
2022/08/17 06:14:25;;;;;;;6.30;5.90;;;18.60;99.90;;;;;;494049;241;28908;-70
2022/08/17 06:16:26;;;;;;;6.60;5.97;;;18.50;99.90;;;;;;494012;241;29331;-73
2022/08/17 06:18:27;;;;;;;7.57;6.80;;;18.50;99.90;;;;;;494056;241;29259;-69
2022/08/17 06:20:29;;;;;;;6.83;6.23;;;18.50;99.90;;;;;;494063;241;29274;-71
2022/08/17 06:22:30;;;;;;;7.13;6.53;;;18.50;99.90;;;;;;494030;241;28819;-70
2022/08/17 06:24:33;;;;;;;6.70;6.17;;;18.50;99.90;;;;;;494027;241;28939;-70
2022/08/17 06:26:32;;;;;;;6.80;6.30;;;18.60;99.90;;;;;;493918;241;28973;-73
2022/08/17 06:28:34;;;;;;;7.47;6.77;;;18.60;99.90;;;;;;494054;241;28979;-69
2022/08/17 06:30:35;;;;;;;6.10;5.60;;;18.70;99.90;;;;;;494026;241;28930;-72
2022/08/17 06:32:37;;;;;;;5.90;5.40;;;18.80;99.90;;;;;;494061;241;28821;-70
2022/08/17 06:34:37;;;;;;;6.13;5.60;;;18.80;99.90;;;;;;494001;241;28932;-73
2022/08/17 06:36:39;;;;;;;5.37;4.97;;;18.70;99.90;;;;;;493851;241;29197;-71
2022/08/17 06:38:40;;;;;;;5.67;5.17;;;18.70;99.90;;;;;;494051;241;28824;-69
2022/08/17 06:40:44;;;;;;;5.67;5.20;;;18.70;99.90;;;;;;494027;241;29371;-70
2022/08/17 06:42:46;;;;;;;6.50;4.63;;;18.70;99.90;;;;;;493827;241;29257;-69
2022/08/17 06:44:44;;;;;;;5.40;4.90;;;18.70;99.90;;;;;;493795;241;29363;-70
2022/08/17 06:46:48;;;;;;;4.53;4.23;;;18.80;99.90;;;;;;494018;241;29441;-73
2022/08/17 06:48:49;;;;;;;5.50;5.10;;;18.90;99.90;;;;;;494053;241;29321;-73
2022/08/17 06:50:52;;;;;;;5.47;4.97;;;18.90;99.90;;;;;;494049;241;29442;-69
2022/08/17 06:52:52;;;;;;;5.33;4.93;;;18.90;99.90;;;;;;493903;241;29307;-70
2022/08/17 06:54:53;;;;;;;5.13;4.73;;;19.00;99.90;;;;;;494054;241;28796;-70
2022/08/17 06:56:54;;;;;;;5.20;4.80;;;19.00;99.90;;;;;;493416;241;28817;-70
2022/08/17 06:58:55;;;;;;;5.37;4.90;;;19.00;99.90;;;;;;493453;241;28856;-73
2022/08/17 07:01:00;;;;;;;4.90;4.50;;;19.00;99.90;;;;;;493841;241;28827;-70
2022/08/17 07:02:58;;;;;;;5.87;5.37;;;19.10;99.90;;;;;;493740;241;28845;-70
2022/08/17 07:05:00;;;;;;;5.87;5.37;;;19.10;99.90;;;;;;494025;241;28842;-70
2022/08/17 07:08:00;;;;;;;5.70;5.23;;;19.30;99.90;;;;;;493927;241;28822;-69
2022/08/17 07:09:02;;;;;;;5.80;5.23;;;19.40;99.90;;;;;;492107;241;28833;-70
2022/08/17 07:11:03;;;;;;;6.20;5.60;;;19.50;99.90;;;;;;494040;241;28813;-70
2022/08/17 07:13:04;;;;;;;5.80;5.20;;;19.60;99.90;;;;;;494025;241;29338;-70
2022/08/17 07:15:05;;;;;;;5.47;5.07;;;19.70;99.90;;;;;;494050;241;30178;-69
2022/08/17 07:17:07;;;;;;;4.83;4.53;;;19.80;99.90;;;;;;493985;241;29272;-70
2022/08/17 07:19:08;;;;;;;5.60;5.20;;;19.90;99.90;;;;;;494029;241;28829;-71
2022/08/17 07:21:09;;;;;;;4.53;4.23;;;20.00;99.90;;;;;;494021;241;28795;-70
2022/08/17 07:23:10;;;;;;;4.97;4.57;;;20.10;99.90;;;;;;494050;241;28830;-70
2022/08/17 07:25:12;;;;;;;4.80;4.37;;;20.20;99.90;;;;;;494061;241;28797;-70
2022/08/17 07:27:13;;;;;;;4.60;4.20;;;20.20;99.90;;;;;;493988;241;28898;-70
2022/08/17 07:29:14;;;;;;;4.40;4.10;;;20.30;99.90;;;;;;494062;241;28853;-74
2022/08/17 07:31:16;;;;;;;4.50;4.20;;;20.30;99.90;;;;;;494068;241;28813;-70
2022/08/17 07:33:18;;;;;;;5.00;4.50;;;20.30;99.90;;;;;;494064;241;28837;-70
2022/08/17 07:35:19;;;;;;;4.03;3.73;;;20.30;99.90;;;;;;493911;241;28788;-69
2022/08/17 07:37:19;;;;;;;4.80;4.40;;;20.20;99.90;;;;;;493680;241;29383;-70
2022/08/17 07:39:20;;;;;;;3.67;3.47;;;20.20;99.90;;;;;;494076;241;29391;-72
2022/08/17 07:41:22;;;;;;;4.10;3.80;;;20.10;99.90;;;;;;494056;241;29244;-70
2022/08/17 07:43:23;;;;;;;4.40;4.10;;;20.00;99.90;;;;;;494038;241;29401;-70
2022/08/17 07:50:03;;;;;;;4.10;3.80;;;19.90;99.90;;;;;;494014;241;28832;-71
2022/08/17 07:52:04;;;;;;;4.10;3.80;;;20.00;99.90;;;;;;494022;241;29190;-69
2022/08/17 07:54:06;;;;;;;4.20;3.90;;;20.00;99.90;;;;;;494050;241;28778;-70
2022/08/17 07:56:07;;;;;;;4.33;4.03;;;20.10;99.90;;;;;;493963;241;29307;-74
2022/08/17 07:58:08;;;;;;;4.27;3.97;;;20.20;99.90;;;;;;494038;241;29340;-70
2022/08/17 08:00:15;;;;;;;6.57;4.20;;;20.20;99.90;;;;;;494025;241;29420;-70
2022/08/17 08:02:11;;;;;;;4.40;4.10;;;20.30;99.90;;;;;;493589;241;29498;-70
2022/08/17 08:04:12;;;;;;;4.73;4.43;;;20.20;99.90;;;;;;494041;241;28802;-69
2022/08/17 08:06:14;;;;;;;4.60;4.20;;;20.20;99.90;;;;;;493969;241;28929;-70
2022/08/17 08:08:14;;;;;;;4.37;4.03;;;20.30;99.90;;;;;;494035;241;28936;-70
2022/08/17 08:10:16;;;;;;;4.37;4.07;;;20.40;99.90;;;;;;494033;241;28848;-71
2022/08/17 08:12:17;;;;;;;6.60;4.73;;;20.50;99.90;;;;;;494030;241;28856;-70
2022/08/17 08:14:18;;;;;;;4.37;3.97;;;20.50;99.90;;;;;;494055;241;28816;-70
2022/08/17 08:16:19;;;;;;;4.03;3.80;;;20.50;99.90;;;;;;493958;239;28921;-72
2022/08/17 08:18:21;;;;;;;4.90;4.60;;;20.50;99.90;;;;;;494023;241;28798;-70
2022/08/17 08:20:22;;;;;;;4.50;4.20;;;20.50;99.90;;;;;;494032;241;29323;-70
2022/08/17 08:22:26;;;;;;;4.40;4.10;;;20.50;99.90;;;;;;493990;241;29408;-70
2022/08/17 08:24:28;;;;;;;4.63;4.33;;;20.60;99.90;;;;;;493902;241;29343;-70
2022/08/17 08:26:26;;;;;;;5.00;4.60;;;20.50;99.90;;;;;;493685;241;30531;-72
2022/08/17 08:28:27;;;;;;;5.83;3.80;;;20.50;99.90;;;;;;494041;241;28798;-69
2022/08/17 08:30:28;;;;;;;4.40;4.10;;;20.40;99.90;;;;;;493988;241;28825;-70
2022/08/17 08:32:29;;;;;;;4.97;4.57;;;20.40;99.90;;;;;;494008;237;28891;-70
2022/08/17 08:34:31;;;;;;;4.43;4.13;;;20.30;99.90;;;;;;494054;241;28873;-70
2022/08/17 08:36:36;;;;;;;4.57;4.23;;;20.30;99.90;;;;;;493874;239;28833;-71
2022/08/17 08:38:33;;;;;;;4.70;4.40;;;20.30;99.90;;;;;;493719;241;28915;-69
2022/08/17 08:40:34;;;;;;;5.03;4.63;;;20.30;99.90;;;;;;494030;241;28873;-70
2022/08/17 08:42:36;;;;;;;4.20;3.90;;;20.30;99.90;;;;;;494027;241;28846;-73
2022/08/17 08:44:37;;;;;;;5.00;4.60;;;20.40;99.90;;;;;;494035;241;29274;-70
2022/08/17 08:46:39;;;;;;;4.20;3.90;;;20.40;99.90;;;;;;493934;241;29316;-71
2022/08/17 08:48:40;;;;;;;4.20;3.90;;;20.50;99.90;;;;;;494002;241;29242;-70
2022/08/17 08:50:41;;;;;;;5.73;5.30;;;20.60;99.90;;;;;;493999;241;29285;-70
2022/08/17 08:52:42;;;;;;;5.30;4.87;;;20.60;99.90;;;;;;494014;237;28847;-73
2022/08/17 08:54:44;;;;;;;6.03;5.27;;;20.60;99.90;;;;;;494036;241;28809;-70
2022/08/17 08:56:44;;;;;;;4.70;4.30;;;20.60;99.90;;;;;;493844;241;28933;-71
2022/08/17 08:58:49;;;;;;;5.03;4.63;;;20.70;99.90;;;;;;494020;241;28827;-70
2022/08/17 09:00:47;;;;;;;4.90;4.50;;;20.70;99.90;;;;;;493799;241;28837;-71
2022/08/17 09:02:48;;;;;;;4.77;4.37;;;20.90;99.90;;;;;;494033;241;28851;-73
2022/08/17 09:04:49;;;;;;;5.00;4.60;;;21.00;99.90;;;;;;494032;241;28828;-70
2022/08/17 09:06:51;;;;;;;4.77;4.37;;;21.00;99.90;;;;;;493975;241;28937;-71
2022/08/17 09:08:52;;;;;;;4.87;4.47;;;21.00;99.90;;;;;;494046;241;29310;-70
2022/08/17 09:10:55;;;;;;;5.00;4.43;;;21.00;99.90;;;;;;494074;241;29300;-70
2022/08/17 09:12:54;;;;;;;4.93;4.53;;;20.90;99.90;;;;;;493943;241;29513;-73
2022/08/17 09:14:56;;;;;;;5.17;4.77;;;20.90;99.90;;;;;;494065;241;28785;-70
2022/08/17 09:16:57;;;;;;;4.60;4.27;;;21.00;99.90;;;;;;493984;241;28836;-70
2022/08/17 09:18:58;;;;;;;4.10;3.80;;;21.00;99.90;;;;;;494046;241;28793;-70
2022/08/17 09:20:59;;;;;;;4.30;3.90;;;21.10;99.90;;;;;;494028;241;28827;-71
2022/08/17 09:23:02;;;;;;;4.90;4.50;;;21.40;99.90;;;;;;494040;241;29301;-73
2022/08/17 09:25:02;;;;;;;4.67;4.27;;;21.60;99.90;;;;;;493949;241;28808;-71
2022/08/17 09:27:03;;;;;;;4.87;4.57;;;21.80;99.90;;;;;;493960;241;28835;-70
2022/08/17 09:29:05;;;;;;;4.25;3.85;;;22.00;99.90;;;;;;490606;241;36228;-69
2022/08/17 09:31:06;;;;;;;4.97;4.57;;;22.10;99.90;;;;;;493999;241;27528;-70
2022/08/17 09:33:07;;;;;;;4.47;4.17;;;22.10;99.90;;;;;;494031;241;29380;-74
2022/08/17 09:35:09;;;;;;;3.97;3.67;;;22.10;99.90;;;;;;494032;241;29258;-70
2022/08/17 09:37:09;;;;;;;4.37;3.97;;;22.10;99.90;;;;;;493857;241;29294;-71
2022/08/17 09:39:11;;;;;;;4.60;4.20;;;22.00;99.90;;;;;;494000;241;28893;-70
2022/08/17 09:41:12;;;;;;;4.23;3.93;;;22.00;99.90;;;;;;494023;241;28833;-71
2022/08/17 09:43:13;;;;;;;4.30;4.00;;;21.90;99.90;;;;;;494023;241;28957;-73
2022/08/17 09:45:14;;;;;;;4.20;3.90;;;21.80;99.90;;;;;;494074;241;28856;-71
2022/08/17 09:47:16;;;;;;;4.77;3.90;;;21.80;99.90;;;;;;493965;241;28836;-71
2022/08/17 09:49:17;;;;;;;4.07;3.83;;;21.90;99.90;;;;;;494046;241;28798;-70
2022/08/17 09:51:18;;;;;;;4.20;3.87;;;22.00;99.90;;;;;;494019;241;28853;-71
2022/08/17 09:53:19;;;;;;;3.63;3.43;;;22.20;99.90;;;;;;494047;241;29200;-73
2022/08/17 09:55:21;;;;;;;4.77;3.77;;;22.40;99.90;;;;;;494041;241;28821;-70
2022/08/17 09:57:22;;;;;;;5.00;3.60;;;22.50;99.90;;;;;;494014;241;29331;-71
2022/08/17 09:59:23;;;;;;;3.90;3.60;;;22.50;99.90;;;;;;494050;241;29340;-70
2022/08/17 10:01:25;;;;;;;4.00;3.70;;;22.60;99.90;;;;;;494026;241;29407;-70
2022/08/17 10:03:27;;;;;;;4.10;3.80;;;22.70;99.90;;;;;;494047;241;29484;-73
2022/08/17 10:05:27;;;;;;;4.13;3.83;;;22.80;99.90;;;;;;494008;241;28818;-70
2022/08/17 10:07:29;;;;;;;4.13;3.83;;;22.80;99.90;;;;;;493984;241;28932;-70
2022/08/17 10:09:30;;;;;;;4.40;4.10;;;22.80;99.90;;;;;;494034;241;28891;-69
2022/08/17 10:12:14;;;;;;;4.50;4.10;;;22.70;99.90;;;;;;494039;241;28829;-70
2022/08/17 10:13:32;;;;;;;4.80;4.40;;;22.60;99.90;;;;;;492292;241;29197;-74
2022/08/17 10:15:35;;;;;;;3.70;3.47;;;22.60;99.90;;;;;;494051;241;28845;-70
2022/08/17 10:17:35;;;;;;;4.00;3.70;;;22.70;99.90;;;;;;493908;241;28866;-71
2022/08/17 10:19:36;;;;;;;4.43;4.07;;;22.70;99.90;;;;;;494050;241;28918;-70
2022/08/17 10:26:16;;;;;;;4.40;4.00;;;22.50;99.90;;;;;;493931;241;28816;-69
2022/08/17 10:28:17;;;;;;;4.73;4.43;;;22.60;99.90;;;;;;494035;241;28845;-71
2022/08/17 10:30:18;;;;;;;4.23;3.83;;;22.70;99.90;;;;;;494056;239;28864;-73
2022/08/17 10:32:20;;;;;;;4.20;3.77;;;22.80;99.90;;;;;;494094;241;28797;-70
2022/08/17 10:34:21;;;;;;;5.03;4.63;;;22.70;99.90;;;;;;494097;241;29282;-71
2022/08/17 10:36:22;;;;;;;4.10;3.80;;;22.80;99.90;;;;;;493876;241;29244;-70
2022/08/17 10:38:24;;;;;;;4.10;3.80;;;22.80;99.90;;;;;;494058;241;29410;-71
2022/08/17 10:40:25;;;;;;;4.80;4.40;;;23.00;99.90;;;;;;494094;241;28850;-73
2022/08/17 10:42:26;;;;;;;4.40;4.00;;;23.10;99.90;;;;;;494073;241;28878;-70
2022/08/17 10:44:28;;;;;;;4.23;3.93;;;23.20;99.90;;;;;;494034;241;28841;-71
2022/08/17 10:46:28;;;;;;;4.30;4.00;;;23.20;99.90;;;;;;493939;241;28805;-70
2022/08/17 10:48:30;;;;;;;5.20;4.70;;;23.20;99.90;;;;;;494041;241;28863;-70
2022/08/17 10:50:31;;;;;;;5.00;4.13;;;23.30;99.90;;;;;;494032;241;28899;-72
2022/08/17 10:52:32;;;;;;;4.77;3.90;;;23.30;99.90;;;;;;494069;241;28808;-70